createdAt,value
2022-08-17T00:00:42.683Z,7.95
2022-08-17T00:03:13.615Z,8.25
2022-08-17T00:05:46.121Z,10.13
2022-08-17T00:08:16.991Z,9.77
2022-08-17T00:10:47.737Z,8.13
2022-08-17T00:13:19.984Z,8.52
2022-08-17T00:15:48.884Z,8.90
2022-08-17T00:18:53.928Z,8.85
2022-08-17T00:21:11.166Z,8.15
2022-08-17T00:23:48.965Z,9.88
2022-08-17T00:26:43.476Z,9.98
2022-08-17T00:29:09.412Z,11.77
2022-08-17T00:31:47.780Z,11.68
2022-08-17T00:34:18.781Z,11.35
2022-08-17T00:36:47.283Z,12.15
2022-08-17T00:39:15.579Z,11.75
2022-08-17T00:41:43.917Z,10.77
2022-08-17T00:44:12.773Z,10.75
2022-08-17T00:46:44.125Z,10.18
2022-08-17T00:49:14.942Z,10.05
2022-08-17T00:51:50.321Z,10.00
2022-08-17T00:54:25.321Z,9.55
2022-08-17T00:56:57.886Z,9.65
2022-08-17T00:59:31.846Z,9.98
2022-08-17T01:02:01.872Z,9.57
2022-08-17T01:04:32.539Z,9.18
2022-08-17T01:07:04.495Z,8.82
2022-08-17T01:09:34.040Z,9.10
2022-08-17T01:12:02.242Z,8.30
2022-08-17T01:14:30.469Z,8.60
2022-08-17T01:17:00.184Z,8.15
2022-08-17T01:19:32.294Z,8.20
2022-08-17T01:22:07.606Z,8.27
2022-08-17T01:24:38.698Z,7.85
2022-08-17T01:27:10.171Z,8.38
2022-08-17T01:29:42.847Z,7.25
2022-08-17T01:32:11.863Z,7.53
2022-08-17T01:34:42.562Z,7.53
2022-08-17T01:37:13.794Z,7.90
2022-08-17T01:39:48.520Z,7.78
2022-08-17T01:42:25.185Z,8.50
2022-08-17T01:44:59.548Z,7.03
2022-08-17T01:47:27.891Z,11.20
2022-08-17T01:49:58.186Z,8.32
2022-08-17T01:52:26.610Z,9.52
2022-08-17T01:54:57.237Z,7.82
2022-08-17T01:57:25.736Z,7.68
2022-08-17T01:59:54.072Z,7.13
2022-08-17T02:02:30.265Z,7.43
2022-08-17T02:04:59.753Z,8.00
2022-08-17T02:07:28.455Z,8.13
2022-08-17T02:09:58.138Z,8.55
2022-08-17T02:12:38.080Z,8.52
2022-08-17T02:15:12.348Z,7.47
2022-08-17T02:17:41.578Z,8.40
2022-08-17T02:20:11.772Z,8.07
2022-08-17T02:22:44.349Z,10.32
2022-08-17T02:25:19.216Z,8.30
2022-08-17T02:27:52.793Z,8.45
2022-08-17T02:31:00.282Z,7.45
2022-08-17T02:33:09.651Z,7.78
2022-08-17T02:35:39.375Z,7.50
2022-08-17T02:38:08.740Z,7.70
2022-08-17T02:40:40.601Z,7.63
2022-08-17T02:43:10.145Z,7.82
2022-08-17T02:45:38.644Z,7.35
2022-08-17T02:48:06.983Z,7.85
2022-08-17T02:50:35.604Z,7.80
2022-08-17T02:53:05.114Z,7.80
2022-08-17T02:55:38.090Z,7.68
2022-08-17T02:58:07.475Z,8.10
2022-08-17T03:00:38.427Z,8.05
2022-08-17T03:03:08.973Z,6.90
2022-08-17T03:05:39.453Z,7.03
2022-08-17T03:08:10.478Z,6.85
2022-08-17T03:10:44.368Z,7.15
2022-08-17T03:13:14.455Z,10.60
2022-08-17T03:15:46.092Z,8.15
2022-08-17T03:18:18.973Z,7.93
2022-08-17T03:20:53.510Z,7.93
2022-08-17T03:23:24.187Z,7.57
2022-08-17T03:25:56.537Z,7.45
2022-08-17T03:28:26.107Z,8.63
2022-08-17T03:30:54.456Z,7.40
2022-08-17T03:33:23.349Z,8.85
2022-08-17T03:35:51.797Z,6.82
2022-08-17T03:38:20.543Z,7.82
2022-08-17T03:40:59.021Z,8.57
2022-08-17T03:43:31.729Z,8.25
2022-08-17T03:46:27.883Z,7.43
2022-08-17T03:49:20.253Z,7.50
2022-08-17T03:52:05.947Z,7.25
2022-08-17T03:54:51.936Z,7.82
2022-08-17T03:57:20.361Z,7.45
2022-08-17T03:59:51.000Z,7.70
2022-08-17T04:02:24.306Z,7.95
2022-08-17T04:04:52.754Z,7.38
2022-08-17T04:07:22.443Z,8.70
2022-08-17T04:09:51.617Z,7.63
2022-08-17T04:12:22.753Z,8.00
2022-08-17T04:14:54.886Z,7.97
2022-08-17T04:17:26.930Z,7.53
2022-08-17T04:19:56.226Z,9.82
2022-08-17T04:22:33.179Z,7.65
2022-08-17T04:25:18.905Z,9.10
2022-08-17T04:27:48.280Z,7.97
2022-08-17T04:30:18.052Z,7.90
2022-08-17T04:33:03.472Z,7.57
2022-08-17T04:35:39.253Z,7.53
2022-08-17T04:38:09.198Z,7.30
2022-08-17T04:40:55.602Z,7.45
2022-08-17T04:43:26.366Z,8.20
2022-08-17T04:45:59.463Z,7.32
2022-08-17T04:48:36.185Z,8.38
2022-08-17T04:51:09.450Z,7.70
2022-08-17T04:53:38.179Z,7.55
2022-08-17T04:56:07.175Z,7.88
2022-08-17T04:58:35.631Z,9.57
2022-08-17T05:01:05.917Z,8.50
2022-08-17T05:03:34.716Z,9.75
2022-08-17T05:06:03.221Z,8.48
2022-08-17T05:08:31.495Z,8.00
2022-08-17T05:11:00.265Z,8.38
2022-08-17T05:13:30.211Z,8.73
2022-08-17T05:16:02.143Z,8.32
2022-08-17T05:18:32.416Z,9.02
2022-08-17T05:21:00.660Z,11.68
2022-08-17T05:23:41.759Z,11.23
2022-08-17T05:26:25.670Z,8.30
2022-08-17T05:28:59.815Z,11.63
2022-08-17T05:31:31.882Z,11.65
2022-08-17T05:34:01.639Z,11.38
2022-08-17T05:36:42.721Z,9.20
2022-08-17T05:39:16.140Z,12.25
2022-08-17T05:41:48.213Z,11.63
2022-08-17T05:44:17.444Z,10.10
2022-08-17T05:46:51.796Z,10.02
2022-08-17T05:49:28.555Z,9.18
2022-08-17T05:52:23.929Z,13.68
2022-08-17T05:55:08.923Z,8.63
2022-08-17T05:57:56.150Z,9.30
2022-08-17T06:00:30.647Z,8.52
2022-08-17T06:03:24.497Z,9.25
2022-08-17T06:06:18.663Z,9.10
2022-08-17T06:08:54.169Z,8.55
2022-08-17T06:11:32.414Z,8.48
2022-08-17T06:14:24.508Z,8.20
2022-08-17T06:16:58.266Z,10.45
2022-08-17T06:19:34.934Z,8.02
2022-08-17T06:22:06.503Z,9.20
2022-08-17T06:24:39.934Z,8.75
2022-08-17T06:27:17.359Z,8.05
2022-08-17T06:29:53.716Z,8.75
2022-08-17T06:32:23.185Z,9.23
2022-08-17T06:34:52.418Z,8.80
2022-08-17T06:38:05.073Z,8.48
2022-08-17T06:40:55.298Z,9.73
2022-08-17T06:43:40.305Z,7.95
2022-08-17T06:46:14.193Z,9.48
2022-08-17T06:48:50.129Z,7.90
2022-08-17T06:51:26.128Z,8.02
2022-08-17T06:54:05.754Z,8.05
2022-08-17T06:56:54.144Z,7.53
2022-08-17T06:59:36.242Z,7.22
2022-08-17T07:02:29.055Z,7.80
2022-08-17T07:05:20.319Z,9.68
2022-08-17T07:08:03.719Z,8.10
2022-08-17T07:10:42.712Z,8.60
2022-08-17T07:13:34.835Z,7.60
2022-08-17T07:16:17.010Z,7.57
2022-08-17T07:18:46.176Z,7.43
2022-08-17T07:21:30.605Z,7.65
2022-08-17T07:24:29.701Z,7.25
2022-08-17T07:27:12.816Z,6.85
2022-08-17T07:29:47.818Z,6.78
2022-08-17T07:32:21.051Z,6.53
2022-08-17T07:35:21.178Z,7.25
2022-08-17T07:37:55.524Z,7.03
2022-08-17T07:40:30.085Z,7.20
2022-08-17T07:43:26.203Z,6.72
2022-08-17T07:46:32.527Z,6.68
2022-08-17T07:49:21.609Z,7.03
2022-08-17T07:52:48.394Z,7.88
2022-08-17T07:54:51.314Z,6.80
2022-08-17T07:57:34.358Z,7.43
2022-08-17T08:00:19.533Z,6.72
2022-08-17T08:03:27.186Z,6.68
2022-08-17T08:06:03.321Z,6.88
2022-08-17T08:08:44.119Z,6.78
2022-08-17T08:11:15.405Z,7.10
2022-08-17T08:13:46.089Z,6.60
2022-08-17T08:16:27.077Z,6.20
2022-08-17T08:18:59.043Z,7.47
2022-08-17T08:21:36.514Z,6.90
2022-08-17T08:24:50.272Z,6.28
2022-08-17T08:27:32.799Z,6.57
2022-08-17T08:30:09.314Z,7.03
2022-08-17T08:33:08.873Z,7.45
2022-08-17T08:35:47.724Z,7.57
2022-08-17T08:38:28.412Z,7.25
2022-08-17T08:41:13.623Z,7.53
2022-08-17T08:43:55.989Z,6.60
2022-08-17T08:46:36.206Z,6.43
2022-08-17T08:49:59.042Z,7.07
2022-08-17T08:52:34.088Z,6.30
2022-08-17T08:55:11.481Z,6.18
2022-08-17T08:57:48.225Z,6.50
2022-08-17T09:00:20.699Z,6.20
2022-08-17T09:03:28.116Z,6.25
2022-08-17T09:06:39.767Z,6.20
2022-08-17T09:09:24.314Z,6.55
2022-08-17T09:12:05.237Z,5.63
2022-08-17T09:14:47.121Z,6.28
2022-08-17T09:17:20.814Z,6.30
2022-08-17T09:19:55.579Z,7.40
2022-08-17T09:22:35.583Z,6.47
2022-08-17T09:25:11.791Z,5.82
2022-08-17T09:28:00.760Z,6.32
2022-08-17T09:30:36.576Z,6.18
2022-08-17T09:33:10.242Z,6.03
2022-08-17T09:35:44.976Z,6.88
2022-08-17T09:38:25.608Z,5.97
2022-08-17T09:41:06.672Z,5.60
2022-08-17T09:43:44.141Z,6.50
2022-08-17T09:46:20.746Z,5.95
2022-08-17T09:48:55.617Z,5.90
2022-08-17T09:51:31.642Z,6.25
2022-08-17T09:54:34.977Z,6.18
2022-08-17T09:57:26.200Z,6.25
2022-08-17T10:00:16.101Z,5.45
2022-08-17T10:03:16.241Z,5.90
2022-08-17T10:05:55.036Z,6.03
2022-08-17T10:08:37.664Z,5.70
2022-08-17T10:11:22.371Z,5.90
2022-08-17T10:14:37.553Z,5.47
2022-08-17T10:17:08.934Z,5.97
2022-08-17T10:19:45.427Z,6.93
2022-08-17T10:22:41.997Z,6.05
2022-08-17T10:25:53.599Z,5.55
2022-08-17T10:28:29.698Z,5.82
2022-08-17T10:31:33.286Z,5.00
2022-08-17T10:34:13.532Z,5.80
2022-08-17T10:36:50.162Z,6.18
2022-08-17T10:39:31.976Z,5.50
2022-08-17T10:42:30.334Z,5.20
2022-08-17T10:45:15.115Z,5.63
2022-08-17T10:48:06.364Z,5.03
2022-08-17T10:50:50.341Z,5.60
2022-08-17T10:54:02.489Z,6.00
2022-08-17T10:56:49.596Z,5.32
2022-08-17T10:59:53.974Z,4.95
2022-08-17T11:02:31.778Z,4.65
2022-08-17T11:05:32.437Z,5.22
2022-08-17T11:09:04.927Z,5.05
2022-08-17T11:11:52.682Z,4.85
2022-08-17T11:14:54.935Z,5.13
2022-08-17T11:17:44.946Z,5.03
2022-08-17T11:20:47.930Z,4.65
2022-08-17T11:24:14.842Z,5.10
2022-08-17T11:26:48.862Z,4.63
2022-08-17T11:29:25.209Z,5.50
2022-08-17T11:32:06.358Z,4.68
2022-08-17T11:34:44.743Z,4.25
2022-08-17T11:37:46.086Z,4.85
2022-08-17T11:40:41.149Z,5.10
2022-08-17T11:43:48.297Z,4.78
2022-08-17T11:46:51.790Z,4.75
2022-08-17T11:49:48.373Z,4.88
2022-08-17T11:52:42.308Z,4.60
2022-08-17T11:56:04.318Z,4.32
2022-08-17T11:58:41.449Z,5.13
2022-08-17T12:01:13.846Z,4.70
2022-08-17T12:03:54.063Z,4.20
2022-08-17T12:06:47.764Z,4.60
2022-08-17T12:09:24.620Z,4.50
2022-08-17T12:12:11.787Z,4.00
2022-08-17T12:17:40.615Z,4.38
2022-08-17T12:20:17.159Z,4.85
2022-08-17T12:22:57.119Z,4.80
2022-08-17T12:25:34.755Z,6.45
2022-08-17T12:28:06.442Z,4.45
2022-08-17T12:30:38.044Z,4.75
2022-08-17T12:33:25.802Z,4.32
2022-08-17T12:36:03.879Z,4.40
2022-08-17T12:38:34.598Z,4.70
2022-08-17T12:41:23.197Z,4.00
2022-08-17T12:44:01.709Z,4.45
2022-08-17T12:46:35.063Z,4.00
2022-08-17T12:49:23.629Z,4.00
2022-08-17T12:51:57.354Z,4.47
2022-08-17T12:54:37.597Z,4.38
2022-08-17T12:57:14.632Z,4.05
2022-08-17T12:59:47.161Z,4.50
2022-08-17T13:02:40.442Z,4.28
2022-08-17T13:05:21.286Z,3.88
2022-08-17T13:07:50.668Z,3.70
2022-08-17T13:10:32.147Z,4.25
2022-08-17T13:13:20.817Z,4.25
2022-08-17T13:15:55.958Z,4.32
2022-08-17T13:18:42.832Z,4.75
2022-08-17T13:21:27.847Z,4.10
2022-08-17T13:24:03.114Z,3.75
2022-08-17T13:26:36.987Z,4.35
2022-08-17T13:29:23.823Z,4.20
2022-08-17T13:31:58.872Z,4.13
2022-08-17T13:34:55.070Z,4.28
2022-08-17T13:37:33.769Z,5.10
2022-08-17T13:40:36.640Z,5.43
2022-08-17T13:43:07.262Z,4.35
2022-08-17T13:45:50.493Z,3.92
2022-08-17T13:48:32.207Z,4.50
2022-08-17T13:51:25.964Z,3.97
2022-08-17T13:54:06.435Z,4.30
2022-08-17T13:56:47.578Z,8.02
2022-08-17T13:59:36.281Z,6.00
2022-08-17T14:02:17.926Z,5.10
2022-08-17T14:04:49.175Z,6.60
2022-08-17T14:07:33.770Z,3.97
2022-08-17T14:10:10.711Z,4.05
2022-08-17T14:12:43.737Z,3.58
2022-08-17T14:15:16.704Z,5.30
2022-08-17T14:17:45.339Z,3.65
2022-08-17T14:20:15.012Z,4.43
2022-08-17T14:22:49.504Z,5.60
2022-08-17T14:25:21.806Z,3.80
2022-08-17T14:27:53.979Z,4.22
2022-08-17T14:30:26.744Z,4.05
2022-08-17T14:32:58.828Z,3.92
2022-08-17T14:35:28.054Z,4.00
2022-08-17T14:37:57.291Z,9.68
2022-08-17T14:40:27.148Z,47.70
2022-08-17T14:42:58.023Z,47.95
2022-08-17T14:45:32.003Z,35.72
2022-08-17T14:48:07.664Z,135.40
2022-08-17T14:50:38.901Z,304.20
2022-08-17T14:53:10.225Z,286.90
2022-08-17T14:55:40.491Z,266.10
2022-08-17T14:58:10.463Z,275.85
2022-08-17T15:00:39.727Z,345.67
2022-08-17T15:03:08.071Z,281.95
2022-08-17T15:05:39.027Z,269.40
2022-08-17T15:08:09.214Z,267.95
2022-08-17T15:10:39.028Z,269.98
2022-08-17T15:13:18.237Z,260.15
2022-08-17T15:15:47.006Z,246.63
2022-08-17T15:18:15.794Z,239.38
2022-08-17T15:20:45.731Z,244.52
2022-08-17T15:23:15.784Z,223.50
2022-08-17T15:25:44.876Z,209.25
2022-08-17T15:28:15.335Z,197.55
2022-08-17T15:30:44.990Z,165.70
2022-08-17T15:33:19.391Z,160.05
2022-08-17T15:35:53.412Z,138.23
2022-08-17T15:38:22.831Z,122.50
2022-08-17T15:40:53.203Z,102.43
2022-08-17T15:43:28.089Z,97.93
2022-08-17T15:46:01.383Z,85.68
2022-08-17T15:48:42.097Z,77.70
2022-08-17T15:51:14.519Z,70.88
2022-08-17T15:53:44.733Z,62.10
2022-08-17T15:56:15.245Z,57.25
2022-08-17T15:58:47.646Z,51.83
2022-08-17T16:03:01.590Z,49.55
2022-08-17T16:04:26.746Z,41.78
2022-08-17T16:06:56.334Z,43.50
2022-08-17T16:09:24.755Z,37.85
2022-08-17T16:11:55.545Z,30.80
2022-08-17T16:14:30.312Z,34.55
2022-08-17T16:17:04.536Z,31.25
2022-08-17T16:19:34.393Z,30.30
2022-08-17T16:22:03.698Z,31.55
2022-08-17T16:24:33.501Z,28.83
2022-08-17T16:27:02.553Z,31.23
2022-08-17T16:29:32.621Z,27.00
2022-08-17T16:32:12.865Z,24.27
2022-08-17T16:34:42.893Z,25.23
2022-08-17T16:37:12.490Z,23.73
2022-08-17T16:39:41.543Z,24.38
2022-08-17T16:42:26.301Z,23.42
2022-08-17T16:44:58.783Z,21.42
2022-08-17T16:47:27.640Z,23.05
2022-08-17T16:49:56.128Z,24.63
2022-08-17T16:52:32.740Z,20.15
2022-08-17T16:55:04.207Z,21.65
2022-08-17T16:57:33.090Z,21.65
2022-08-17T17:00:02.958Z,19.55
2022-08-17T17:02:34.509Z,19.45
2022-08-17T17:05:08.136Z,21.38
2022-08-17T17:07:50.752Z,21.45
2022-08-17T17:10:24.261Z,17.13
2022-08-17T17:13:02.006Z,17.33
2022-08-17T17:15:48.264Z,19.88
2022-08-17T17:18:18.214Z,18.92
2022-08-17T17:20:56.507Z,19.05
2022-08-17T17:23:41.680Z,20.23
2022-08-17T17:26:43.290Z,18.42
2022-08-17T17:29:28.977Z,16.88
2022-08-17T17:32:26.206Z,15.68
2022-08-17T17:35:03.271Z,18.83
2022-08-17T17:37:35.754Z,18.92
2022-08-17T17:40:13.665Z,20.48
2022-08-17T17:42:44.704Z,14.60
2022-08-17T17:45:21.105Z,14.82
2022-08-17T17:47:52.963Z,21.73
2022-08-17T17:50:30.427Z,18.98
2022-08-17T17:53:07.505Z,17.73
2022-08-17T17:55:48.550Z,18.92
2022-08-17T17:58:51.197Z,16.50
2022-08-17T18:01:35.231Z,16.60
2022-08-17T18:04:21.157Z,16.10
2022-08-17T18:07:09.994Z,18.75
2022-08-17T18:10:05.473Z,19.90
2022-08-17T18:12:59.555Z,19.20
2022-08-17T18:15:34.104Z,19.08
2022-08-17T18:18:31.131Z,17.35
2022-08-17T18:21:06.799Z,13.88
2022-08-17T18:23:35.851Z,16.48
2022-08-17T18:26:04.697Z,14.20
2022-08-17T18:28:38.945Z,12.05
2022-08-17T18:31:13.308Z,14.23
2022-08-17T18:33:45.482Z,12.18
2022-08-17T18:36:30.434Z,13.35
2022-08-17T18:39:15.269Z,12.68
2022-08-17T18:41:45.371Z,13.02
2022-08-17T18:44:28.947Z,12.68
2022-08-17T18:47:16.854Z,11.55
2022-08-17T18:49:49.674Z,11.07
2022-08-17T18:52:26.076Z,14.45
2022-08-17T18:55:09.114Z,11.77
2022-08-17T18:57:41.083Z,10.40
2022-08-17T19:00:19.097Z,15.45
2022-08-17T19:02:54.595Z,11.85
2022-08-17T19:05:36.174Z,9.65
2022-08-17T19:08:25.231Z,13.48
2022-08-17T19:10:58.295Z,11.35
2022-08-17T19:13:32.475Z,11.48
2022-08-17T19:16:14.263Z,10.52
2022-08-17T19:18:50.027Z,11.63
2022-08-17T19:21:26.189Z,13.95
2022-08-17T19:24:06.396Z,10.55
2022-08-17T19:26:54.032Z,10.90
2022-08-17T19:29:34.339Z,14.15
2022-08-17T19:32:04.488Z,10.70
2022-08-17T19:34:36.738Z,10.10
2022-08-17T19:37:15.281Z,10.95
2022-08-17T19:39:56.328Z,11.65
2022-08-17T19:42:40.501Z,11.60
2022-08-17T19:45:24.677Z,12.02
2022-08-17T19:48:03.353Z,9.20
2022-08-17T19:50:41.432Z,10.82
2022-08-17T19:53:23.593Z,9.23
2022-08-17T19:56:00.832Z,10.35
2022-08-17T19:58:48.427Z,9.55
2022-08-17T20:01:34.574Z,9.02
2022-08-17T20:04:14.201Z,10.38
2022-08-17T20:06:49.612Z,10.32
2022-08-17T20:09:29.682Z,9.65
2022-08-17T20:12:10.194Z,10.02
2022-08-17T20:14:51.753Z,10.65
2022-08-17T20:17:28.743Z,9.95
2022-08-17T20:20:06.869Z,11.48
2022-08-17T20:22:50.394Z,11.18
2022-08-17T20:25:31.777Z,9.07
2022-08-17T20:28:07.580Z,10.98
2022-08-17T20:30:39.723Z,11.10
2022-08-17T20:33:23.513Z,8.73
2022-08-17T20:36:12.868Z,8.63
2022-08-17T20:38:45.598Z,8.27
2022-08-17T20:41:17.325Z,9.38
2022-08-17T20:44:05.448Z,9.52
2022-08-17T20:47:04.589Z,13.25
2022-08-17T20:49:53.859Z,9.85
2022-08-17T20:52:55.348Z,11.43
2022-08-17T20:55:55.598Z,10.23
2022-08-17T20:58:48.568Z,9.13
2022-08-17T21:01:35.892Z,8.75
2022-08-17T21:08:14.486Z,8.30
2022-08-17T21:10:46.947Z,11.65
2022-08-17T21:14:01.649Z,10.82
2022-08-17T21:16:41.376Z,10.77
2022-08-17T21:19:33.895Z,8.55
2022-08-17T21:22:31.110Z,8.95
2022-08-17T21:25:14.140Z,8.90
2022-08-17T21:27:51.367Z,8.63
2022-08-17T21:30:48.054Z,8.02
2022-08-17T21:33:27.986Z,9.60
2022-08-17T21:36:27.569Z,8.07
2022-08-17T21:39:09.231Z,7.65
2022-08-17T21:41:52.967Z,7.70
2022-08-17T21:44:31.655Z,7.60
2022-08-17T21:47:21.230Z,8.65
2022-08-17T21:49:49.838Z,8.05
2022-08-17T21:52:22.026Z,7.20
2022-08-17T21:54:54.337Z,7.90
2022-08-17T21:57:27.611Z,10.25
2022-08-17T22:00:00.119Z,8.27
2022-08-17T22:02:33.884Z,7.90
2022-08-17T22:05:05.243Z,7.85
2022-08-17T22:07:42.086Z,8.30
2022-08-17T22:10:31.742Z,8.48
2022-08-17T22:13:05.758Z,7.90
2022-08-17T22:16:15.532Z,7.85
2022-08-17T22:19:00.048Z,9.35
2022-08-17T22:21:28.773Z,8.40
2022-08-17T22:24:07.277Z,10.60
2022-08-17T22:27:10.460Z,9.00
2022-08-17T22:29:57.980Z,8.85
2022-08-17T22:32:41.468Z,7.32
2022-08-17T22:35:35.945Z,7.72
2022-08-17T22:38:33.362Z,7.47
2022-08-17T22:41:27.622Z,8.50
2022-08-17T22:43:57.495Z,8.15
2022-08-17T22:46:26.738Z,8.02
2022-08-17T22:48:59.519Z,8.25
2022-08-17T22:51:31.532Z,8.63
2022-08-17T22:54:20.361Z,8.15
2022-08-17T22:57:13.447Z,8.05
2022-08-17T22:59:48.965Z,8.98
2022-08-17T23:02:26.150Z,8.02
2022-08-17T23:05:17.128Z,9.98
2022-08-17T23:07:48.522Z,8.27
2022-08-17T23:10:17.108Z,7.82
2022-08-17T23:12:46.220Z,8.43
2022-08-17T23:15:19.206Z,8.38
2022-08-17T23:17:48.080Z,8.30
2022-08-17T23:20:17.675Z,8.68
2022-08-17T23:22:51.844Z,8.35
2022-08-17T23:25:27.981Z,8.90
2022-08-17T23:27:57.466Z,8.45
2022-08-17T23:30:28.503Z,9.57
2022-08-17T23:32:59.372Z,9.65
2022-08-17T23:35:39.759Z,9.50
2022-08-17T23:38:10.985Z,8.73
2022-08-17T23:40:40.362Z,8.82
2022-08-17T23:43:23.388Z,9.10
2022-08-17T23:45:54.689Z,7.72
2022-08-17T23:48:28.369Z,10.20
2022-08-17T23:51:09.273Z,9.05
2022-08-17T23:53:47.276Z,9.10
2022-08-17T23:56:19.878Z,9.15
2022-08-17T23:58:48.325Z,9.30
